createdAt,value
2019-02-02T00:01:49.339Z,82.30
2019-02-02T00:04:17.869Z,82.86
2019-02-02T00:06:46.745Z,82.86
2019-02-02T00:09:15.320Z,83.22
2019-02-02T00:11:43.841Z,84.08
2019-02-02T00:14:12.714Z,84.41
2019-02-02T00:16:41.249Z,84.27
2019-02-02T00:19:09.799Z,84.87
2019-02-02T00:21:38.298Z,84.97
2019-02-02T00:24:06.888Z,85.35
2019-02-02T00:26:35.627Z,85.47
2019-02-02T00:31:58.627Z,85.85
2019-02-02T00:34:27.084Z,85.82
2019-02-02T00:36:55.753Z,85.82
2019-02-02T00:39:24.362Z,85.85
2019-02-02T00:41:53.255Z,85.81
2019-02-02T00:44:22.147Z,86.25
2019-02-02T00:46:50.772Z,86.04
2019-02-02T00:49:19.309Z,86.09
2019-02-02T00:51:47.907Z,86.53
2019-02-02T00:54:16.454Z,86.81
2019-02-02T00:56:45.007Z,87.23
2019-02-02T00:59:13.520Z,87.38
2019-02-02T01:01:42.008Z,87.26
2019-02-02T01:04:10.534Z,87.18
2019-02-02T01:06:39.021Z,87.30
2019-02-02T01:09:47.492Z,87.50
2019-02-02T01:12:16.049Z,87.82
2019-02-02T01:14:44.527Z,88.08
2019-02-02T01:17:13.037Z,87.76
2019-02-02T01:19:41.473Z,88.06
2019-02-02T01:22:10.086Z,88.40
2019-02-02T01:24:38.627Z,88.21
2019-02-02T01:27:07.172Z,88.29
2019-02-02T01:29:35.768Z,89.07
2019-02-02T01:32:04.326Z,88.88
2019-02-02T01:34:32.980Z,89.52
2019-02-02T01:37:01.507Z,89.23
2019-02-02T01:39:30.123Z,89.51
2019-02-02T01:41:58.608Z,89.68
2019-02-02T01:44:27.166Z,90.36
2019-02-02T01:46:55.673Z,90.32
2019-02-02T01:49:24.254Z,90.52
2019-02-02T01:51:52.704Z,90.72
2019-02-02T01:54:21.269Z,90.57
2019-02-02T01:56:49.725Z,90.77
2019-02-02T01:59:18.288Z,90.49
2019-02-02T02:01:46.855Z,90.80
2019-02-02T02:04:15.407Z,90.92
2019-02-02T02:06:43.903Z,90.93
2019-02-02T02:09:12.434Z,90.87
2019-02-02T02:11:40.969Z,91.66
2019-02-02T02:14:09.585Z,91.43
2019-02-02T02:16:38.101Z,91.80
2019-02-02T02:19:06.665Z,92.08
2019-02-02T02:21:35.177Z,92.18
2019-02-02T02:24:03.717Z,92.56
2019-02-02T02:26:32.290Z,92.63
2019-02-02T02:29:00.871Z,92.84
2019-02-02T02:31:29.430Z,93.27
2019-02-02T02:33:57.912Z,93.06
2019-02-02T02:36:26.547Z,93.18
2019-02-02T02:38:55.025Z,93.55
2019-02-02T02:41:23.826Z,93.34
2019-02-02T02:43:52.822Z,93.25
2019-02-02T02:46:21.818Z,93.36
2019-02-02T02:48:50.469Z,93.12
2019-02-02T02:51:19.009Z,93.50
2019-02-02T02:53:47.544Z,93.77
2019-02-02T02:56:16.235Z,93.41
2019-02-02T02:58:45.053Z,93.55
2019-02-02T03:01:13.565Z,93.74
2019-02-02T03:03:42.068Z,93.88
2019-02-02T03:06:10.642Z,93.88
2019-02-02T03:08:39.212Z,94.19
2019-02-02T03:11:07.799Z,94.26
2019-02-02T03:13:36.766Z,94.27
2019-02-02T03:16:05.336Z,94.35
2019-02-02T03:18:33.896Z,94.29
2019-02-02T03:21:02.877Z,94.18
2019-02-02T03:23:31.506Z,94.18
2019-02-02T03:26:00.050Z,94.27
2019-02-02T03:28:28.675Z,94.06
2019-02-02T03:30:57.195Z,94.49
2019-02-02T03:33:25.713Z,94.42
2019-02-02T03:35:54.524Z,94.34
2019-02-02T03:38:23.058Z,94.42
2019-02-02T03:40:52.225Z,94.23
2019-02-02T03:43:20.760Z,94.64
2019-02-02T03:45:49.251Z,94.56
2019-02-02T03:48:17.826Z,94.26
2019-02-02T03:50:46.389Z,94.60
2019-02-02T03:53:14.903Z,94.41
2019-02-02T03:55:43.516Z,94.60
2019-02-02T03:58:11.986Z,94.48
2019-02-02T04:00:40.898Z,94.09
2019-02-02T04:03:09.624Z,94.09
2019-02-02T04:05:38.159Z,94.36
2019-02-02T04:08:06.704Z,94.26
2019-02-02T04:10:35.296Z,94.69
2019-02-02T04:13:03.912Z,94.35
2019-02-02T04:15:32.589Z,94.64
2019-02-02T04:18:01.203Z,94.30
2019-02-02T04:20:29.861Z,94.42
2019-02-02T04:22:58.422Z,94.18
2019-02-02T04:25:27.277Z,94.09
2019-02-02T04:27:55.783Z,94.42
2019-02-02T04:31:04.274Z,94.40
2019-02-02T04:33:32.843Z,94.27
2019-02-02T04:36:01.740Z,94.32
2019-02-02T04:38:30.223Z,94.33
2019-02-02T04:40:58.824Z,94.53
2019-02-02T04:43:27.225Z,94.47
2019-02-02T04:45:55.809Z,94.21
2019-02-02T04:48:24.399Z,93.85
2019-02-02T04:50:52.958Z,93.96
2019-02-02T04:53:21.611Z,94.24
2019-02-02T04:55:50.508Z,94.48
2019-02-02T04:58:19.157Z,94.29
2019-02-02T05:00:47.985Z,94.36
2019-02-02T05:03:16.578Z,94.23
2019-02-02T05:05:45.111Z,93.94
2019-02-02T05:08:13.616Z,93.79
2019-02-02T05:10:42.236Z,94.24
2019-02-02T05:13:10.743Z,93.63
2019-02-02T05:15:39.331Z,93.87
2019-02-02T05:18:08.286Z,94.02
2019-02-02T05:20:36.825Z,94.12
2019-02-02T05:23:05.460Z,94.08
2019-02-02T05:25:33.962Z,94.07
2019-02-02T05:28:02.557Z,93.85
2019-02-02T05:30:50.427Z,93.62
2019-02-02T05:33:18.969Z,93.34
2019-02-02T05:35:47.509Z,93.14
2019-02-02T05:38:16.038Z,93.30
2019-02-02T05:40:44.596Z,93.67
2019-02-02T05:43:13.072Z,93.51
2019-02-02T05:45:41.591Z,93.67
2019-02-02T05:48:10.141Z,93.80
2019-02-02T05:50:38.953Z,93.44
2019-02-02T05:53:49.129Z,93.70
2019-02-02T05:56:05.030Z,93.63
2019-02-02T05:58:33.532Z,93.77
2019-02-02T06:01:02.145Z,93.39
2019-02-02T06:03:30.683Z,93.60
2019-02-02T06:05:59.155Z,93.53
2019-02-02T06:08:27.708Z,93.67
2019-02-02T06:10:56.297Z,93.46
2019-02-02T06:13:24.883Z,93.25
2019-02-02T06:15:53.580Z,93.30
2019-02-02T06:18:22.064Z,93.33
2019-02-02T06:20:50.524Z,93.58
2019-02-02T06:23:19.127Z,93.57
2019-02-02T06:25:47.662Z,93.79
2019-02-02T06:28:16.315Z,93.85
2019-02-02T06:30:44.935Z,93.32
2019-02-02T06:33:13.400Z,93.21
2019-02-02T06:35:42.155Z,93.38
2019-02-02T06:38:10.774Z,93.58
2019-02-02T06:40:39.280Z,93.51
2019-02-02T06:43:08.207Z,93.78
2019-02-02T06:46:16.676Z,93.63
2019-02-02T06:48:45.208Z,93.84
2019-02-02T06:51:13.742Z,93.81
2019-02-02T06:53:42.323Z,93.66
2019-02-02T06:56:10.890Z,93.47
2019-02-02T06:58:39.748Z,93.52
2019-02-02T07:01:08.288Z,93.44
2019-02-02T07:03:36.861Z,93.49
2019-02-02T07:06:05.405Z,93.57
2019-02-02T07:08:33.951Z,93.56
2019-02-02T07:11:02.495Z,93.52
2019-02-02T07:13:31.101Z,93.56
2019-02-02T07:15:59.663Z,93.75
2019-02-02T07:18:28.155Z,93.76
2019-02-02T07:20:56.672Z,93.77
2019-02-02T07:23:25.484Z,93.75
2019-02-02T07:25:54.048Z,93.58
2019-02-02T07:28:22.501Z,93.71
2019-02-02T07:30:51.222Z,93.83
2019-02-02T07:33:19.760Z,93.73
2019-02-02T07:35:48.259Z,93.82
2019-02-02T07:38:16.777Z,93.82
2019-02-02T07:40:45.361Z,93.79
2019-02-02T07:43:13.951Z,93.80
2019-02-02T07:45:42.544Z,93.63
2019-02-02T07:48:11.644Z,93.80
2019-02-02T07:50:40.544Z,93.52
2019-02-02T07:53:09.127Z,93.61
2019-02-02T07:55:37.775Z,93.48
2019-02-02T07:58:06.373Z,93.52
2019-02-02T08:01:15.109Z,93.43
2019-02-02T08:03:43.751Z,93.24
2019-02-02T08:06:12.271Z,93.18
2019-02-02T08:08:40.858Z,93.21
2019-02-02T08:11:09.355Z,93.25
2019-02-02T08:13:37.952Z,93.27
2019-02-02T08:16:06.687Z,93.24
2019-02-02T08:18:35.246Z,93.27
2019-02-02T08:21:03.861Z,93.36
2019-02-02T08:23:32.391Z,93.39
2019-02-02T08:26:01.033Z,93.31
2019-02-02T08:28:29.567Z,93.19
2019-02-02T08:30:58.197Z,92.90
2019-02-02T08:33:26.821Z,92.91
2019-02-02T08:35:55.313Z,92.82
2019-02-02T08:38:23.804Z,93.03
2019-02-02T08:40:52.242Z,93.24
2019-02-02T08:43:20.786Z,93.36
2019-02-02T08:45:49.390Z,93.54
2019-02-02T08:48:17.928Z,93.54
2019-02-02T08:50:46.565Z,93.45
2019-02-02T08:53:15.215Z,93.01
2019-02-02T08:55:44.418Z,93.22
2019-02-02T08:58:13.144Z,93.40
2019-02-02T09:00:43.247Z,93.57
2019-02-02T09:03:52.713Z,93.39
2019-02-02T09:06:22.411Z,93.63
2019-02-02T09:08:51.051Z,93.61
2019-02-02T09:11:19.558Z,93.91
2019-02-02T09:13:48.084Z,93.46
2019-02-02T09:16:16.739Z,93.53
2019-02-02T09:18:45.287Z,93.60
2019-02-02T09:21:13.904Z,93.58
2019-02-02T09:23:42.478Z,93.15
2019-02-02T09:26:10.946Z,92.87
2019-02-02T09:28:39.505Z,93.15
2019-02-02T09:31:15.492Z,93.32
2019-02-02T09:33:38.456Z,93.35
2019-02-02T09:36:06.971Z,93.28
2019-02-02T09:38:35.523Z,93.35
2019-02-02T09:41:04.585Z,93.40
2019-02-02T09:43:33.147Z,93.36
2019-02-02T09:46:04.609Z,93.15
2019-02-02T09:48:31.890Z,93.33
2019-02-02T09:51:00.448Z,93.24
2019-02-02T09:53:29.001Z,93.25
2019-02-02T09:55:57.472Z,93.15
2019-02-02T09:58:26.106Z,93.23
2019-02-02T10:00:54.656Z,93.21
2019-02-02T10:03:23.135Z,93.15
2019-02-02T10:05:51.651Z,93.08
2019-02-02T10:08:20.137Z,93.07
2019-02-02T10:10:48.591Z,92.17
2019-02-02T10:13:17.138Z,91.94
2019-02-02T10:15:45.698Z,92.02
2019-02-02T10:18:14.223Z,92.30
2019-02-02T10:20:42.783Z,92.39
2019-02-02T10:23:11.308Z,92.57
2019-02-02T10:25:39.848Z,92.73
2019-02-02T10:28:08.460Z,92.27
2019-02-02T10:31:17.214Z,92.17
2019-02-02T10:33:45.941Z,92.42
2019-02-02T10:36:14.512Z,92.86
2019-02-02T10:38:43.036Z,92.95
2019-02-02T10:41:11.599Z,92.85
2019-02-02T10:43:40.500Z,92.88
2019-02-02T10:46:10.795Z,92.96
2019-02-02T10:48:39.306Z,92.92
2019-02-02T10:51:07.802Z,92.99
2019-02-02T10:53:36.381Z,92.91
2019-02-02T10:56:04.937Z,92.83
2019-02-02T10:58:33.580Z,92.77
2019-02-02T11:01:02.234Z,92.83
2019-02-02T11:03:30.869Z,92.72
2019-02-02T11:05:59.353Z,92.69
2019-02-02T11:08:27.981Z,92.59
2019-02-02T11:10:56.794Z,92.53
2019-02-02T11:13:25.466Z,92.56
2019-02-02T11:15:54.353Z,92.57
2019-02-02T11:19:03.801Z,92.60
2019-02-02T11:21:32.301Z,92.87
2019-02-02T11:24:00.894Z,92.73
2019-02-02T11:26:29.450Z,92.83
2019-02-02T11:28:58.308Z,92.82
2019-02-02T11:31:26.886Z,92.86
2019-02-02T11:33:55.432Z,92.81
2019-02-02T11:36:23.940Z,92.91
2019-02-02T11:42:00.568Z,92.73
2019-02-02T11:44:29.064Z,92.85
2019-02-02T11:46:57.636Z,92.89
2019-02-02T11:52:34.288Z,92.97
2019-02-02T11:55:03.232Z,92.93
2019-02-02T11:57:31.876Z,92.79
2019-02-02T12:00:00.340Z,92.76
2019-02-02T12:02:28.906Z,92.74
2019-02-02T12:04:57.435Z,92.79
2019-02-02T12:07:25.919Z,92.75
2019-02-02T12:09:54.932Z,92.91
2019-02-02T12:12:23.512Z,93.10
2019-02-02T12:14:52.146Z,93.32
2019-02-02T12:17:20.688Z,93.44
2019-02-02T12:19:49.160Z,93.24
2019-02-02T12:22:17.658Z,93.21
2019-02-02T12:24:46.114Z,93.29
2019-02-02T12:27:14.648Z,93.25
2019-02-02T12:29:43.303Z,93.35
2019-02-02T12:32:11.734Z,93.74
2019-02-02T12:34:40.210Z,93.68
2019-02-02T12:37:08.773Z,94.33
2019-02-02T12:39:37.254Z,94.39
2019-02-02T12:42:05.881Z,94.44
2019-02-02T12:44:34.318Z,94.52
2019-02-02T12:47:02.828Z,94.27
2019-02-02T12:49:31.308Z,94.30
2019-02-02T12:51:59.866Z,94.45
2019-02-02T12:54:28.743Z,94.25
2019-02-02T12:56:57.332Z,94.23
2019-02-02T12:59:25.817Z,94.22
2019-02-02T13:01:54.466Z,94.17
2019-02-02T13:04:22.945Z,94.22
2019-02-02T13:06:52.254Z,94.27
2019-02-02T13:09:21.742Z,94.34
2019-02-02T13:11:50.329Z,94.37
2019-02-02T13:14:18.902Z,94.57
2019-02-02T13:16:50.058Z,94.58
2019-02-02T13:19:17.613Z,94.74
2019-02-02T13:21:46.207Z,95.25
2019-02-02T13:24:14.675Z,96.53
2019-02-02T13:26:43.293Z,96.87
2019-02-02T13:29:11.867Z,96.50
2019-02-02T13:31:40.641Z,96.74
2019-02-02T13:34:09.216Z,96.81
2019-02-02T13:36:37.856Z,97.58
2019-02-02T13:39:46.305Z,97.54
2019-02-02T13:42:14.895Z,97.38
2019-02-02T13:44:43.356Z,97.37
2019-02-02T13:47:11.912Z,97.28
2019-02-02T13:49:40.483Z,97.14
2019-02-02T13:52:09.091Z,97.00
2019-02-02T13:54:37.578Z,96.84
2019-02-02T13:57:06.108Z,96.56
2019-02-02T13:59:34.585Z,96.63
2019-02-02T14:02:03.152Z,96.66
2019-02-02T14:04:31.795Z,96.57
2019-02-02T14:07:00.272Z,96.45
2019-02-02T14:09:28.843Z,96.33
2019-02-02T14:11:57.383Z,96.30
2019-02-02T14:14:25.857Z,96.25
2019-02-02T14:16:54.342Z,96.10
2019-02-02T14:19:22.848Z,96.18
2019-02-02T14:21:51.498Z,96.06
2019-02-02T14:24:20.029Z,96.04
2019-02-02T14:26:48.750Z,96.12
2019-02-02T14:29:17.295Z,96.06
2019-02-02T14:31:45.746Z,95.92
2019-02-02T14:34:14.249Z,95.90
2019-02-02T14:36:42.978Z,95.84
2019-02-02T14:39:11.709Z,95.79
2019-02-02T14:41:40.360Z,95.78
2019-02-02T14:44:49.380Z,95.65
2019-02-02T14:53:05.969Z,95.60
2019-02-02T14:55:34.950Z,95.79
2019-02-02T14:58:03.493Z,95.96
2019-02-02T15:00:32.053Z,96.12
2019-02-02T15:03:03.240Z,96.74
2019-02-02T15:05:42.120Z,96.86
2019-02-02T15:08:01.386Z,96.69
2019-02-02T15:10:30.253Z,96.84
2019-02-02T15:15:56.427Z,96.98
2019-02-02T15:18:25.112Z,96.82
2019-02-02T15:20:53.649Z,97.07
2019-02-02T15:23:41.832Z,97.32
2019-02-02T15:25:54.445Z,97.64
2019-02-02T15:28:23.964Z,97.95
2019-02-02T15:33:50.045Z,98.28
2019-02-02T15:36:19.536Z,98.30
2019-02-02T15:38:48.165Z,98.85
2019-02-02T15:41:16.843Z,98.91
2019-02-02T15:43:45.371Z,98.93
2019-02-02T15:46:13.854Z,98.85
2019-02-02T15:48:43.141Z,98.64
2019-02-02T15:51:11.774Z,98.74
2019-02-02T15:53:40.325Z,98.63
2019-02-02T15:56:08.889Z,98.40
2019-02-02T15:58:37.521Z,98.31
2019-02-02T16:01:07.153Z,98.08
2019-02-02T16:03:35.905Z,97.98
2019-02-02T16:06:04.564Z,97.96
2019-02-02T16:08:33.148Z,97.93
2019-02-02T16:11:42.427Z,97.83
2019-02-02T16:14:51.078Z,97.71
2019-02-02T16:20:48.588Z,97.80
2019-02-02T16:23:17.284Z,97.83
2019-02-02T16:25:46.166Z,98.33
2019-02-02T16:28:14.999Z,98.87
2019-02-02T16:30:43.607Z,98.81
2019-02-02T16:33:12.204Z,98.97
2019-02-02T16:35:40.795Z,99.06
2019-02-02T16:38:09.484Z,99.26
2019-02-02T16:40:37.970Z,99.69
2019-02-02T16:43:46.387Z,99.64
2019-02-02T16:46:14.946Z,99.84
2019-02-02T16:48:43.529Z,99.86
2019-02-02T16:51:12.063Z,99.82
2019-02-02T16:53:40.676Z,100.00
2019-02-02T16:56:09.257Z,99.81
2019-02-02T16:58:37.811Z,99.69
2019-02-02T17:01:06.336Z,99.94
2019-02-02T17:03:35.322Z,99.82
2019-02-02T17:06:03.885Z,99.86
2019-02-02T17:08:32.761Z,99.75
2019-02-02T17:11:01.295Z,99.98
2019-02-02T17:13:29.736Z,99.96
2019-02-02T17:15:58.296Z,100.00
2019-02-02T17:18:26.839Z,99.97
2019-02-02T17:20:55.479Z,99.83
2019-02-02T17:23:23.978Z,99.75
2019-02-02T17:25:52.959Z,99.62
2019-02-02T17:28:21.868Z,99.51
2019-02-02T17:30:50.435Z,99.56
2019-02-02T17:33:18.970Z,99.89
2019-02-02T17:35:47.516Z,100.00
2019-02-02T17:38:16.077Z,100.00
2019-02-02T17:40:44.887Z,100.00
2019-02-02T17:43:13.453Z,100.00
2019-02-02T17:45:42.103Z,100.00
2019-02-02T17:48:50.608Z,100.00
2019-02-02T17:51:19.171Z,100.00
2019-02-02T17:53:47.625Z,100.00
2019-02-02T17:56:16.518Z,100.00
2019-02-02T17:58:45.170Z,100.00
2019-02-02T18:01:13.742Z,99.95
2019-02-02T18:03:42.165Z,100.00
2019-02-02T18:06:10.744Z,100.00
2019-02-02T18:08:39.411Z,99.78
2019-02-02T18:11:07.892Z,99.87
2019-02-02T18:13:36.510Z,99.93
2019-02-02T18:16:05.139Z,99.45
2019-02-02T18:18:53.343Z,99.72
2019-02-02T18:21:21.898Z,99.80
2019-02-02T18:23:50.605Z,100.00
2019-02-02T18:26:19.205Z,99.84
2019-02-02T18:28:47.792Z,99.53
2019-02-02T18:31:16.295Z,99.42
2019-02-02T18:33:44.848Z,99.45
2019-02-02T18:36:13.403Z,99.46
2019-02-02T18:38:41.965Z,99.09
2019-02-02T18:41:10.584Z,98.95
2019-02-02T18:43:39.258Z,98.47
2019-02-02T18:46:07.812Z,98.23
2019-02-02T18:48:36.421Z,99.12
2019-02-02T18:51:05.004Z,99.15
2019-02-02T18:53:33.567Z,99.76
2019-02-02T18:56:02.101Z,99.79
2019-02-02T18:58:30.649Z,100.00
2019-02-02T19:00:59.215Z,99.89
2019-02-02T19:03:27.790Z,99.78
2019-02-02T19:05:56.295Z,100.00
2019-02-02T19:08:24.836Z,99.91
2019-02-02T19:10:53.400Z,99.84
2019-02-02T19:13:21.835Z,99.89
2019-02-02T19:15:50.394Z,99.64
2019-02-02T19:18:18.897Z,99.66
2019-02-02T19:20:47.420Z,99.75
2019-02-02T19:23:24.580Z,99.70
2019-02-02T19:25:46.242Z,99.80
2019-02-02T19:28:14.705Z,99.89
2019-02-02T19:30:43.284Z,99.40
2019-02-02T19:33:12.218Z,99.33
2019-02-02T19:35:40.699Z,99.82
2019-02-02T19:38:09.350Z,99.87
2019-02-02T19:40:38.212Z,99.89
2019-02-02T19:43:07.280Z,99.57
2019-02-02T19:45:35.805Z,99.46
2019-02-02T19:48:04.530Z,99.32
2019-02-02T19:50:32.951Z,99.33
2019-02-02T19:53:01.747Z,99.56
2019-02-02T19:55:37.523Z,99.47
2019-02-02T19:58:06.421Z,99.60
2019-02-02T20:01:14.869Z,99.25
2019-02-02T20:03:43.345Z,99.39
2019-02-02T20:06:11.927Z,99.28
2019-02-02T20:08:40.943Z,99.31
2019-02-02T20:11:09.587Z,99.88
2019-02-02T20:13:38.078Z,100.00
2019-02-02T20:16:06.794Z,100.00
2019-02-02T20:18:35.355Z,100.00
2019-02-02T20:21:04.280Z,100.00
2019-02-02T20:23:36.375Z,100.00
2019-02-02T20:26:03.166Z,100.00
2019-02-02T20:28:31.645Z,100.00
2019-02-02T20:31:00.264Z,100.00
2019-02-02T20:33:28.888Z,100.00
2019-02-02T20:35:57.483Z,100.00
2019-02-02T20:38:26.073Z,100.00
2019-02-02T20:40:54.597Z,100.00
2019-02-02T20:43:23.096Z,100.00
2019-02-02T20:45:51.662Z,100.00
2019-02-02T20:48:20.244Z,100.00
2019-02-02T20:50:48.801Z,100.00
2019-02-02T20:53:19.069Z,100.00
2019-02-02T20:55:47.673Z,100.00
2019-02-02T20:58:16.231Z,100.00
2019-02-02T21:00:44.822Z,100.00
2019-02-02T21:03:13.463Z,100.00
2019-02-02T21:05:52.062Z,100.00
2019-02-02T21:08:12.237Z,100.00
2019-02-02T21:10:40.864Z,100.00
2019-02-02T21:13:09.791Z,100.00
2019-02-02T21:15:38.393Z,100.00
2019-02-02T21:18:07.016Z,100.00
2019-02-02T21:20:37.316Z,99.97
2019-02-02T21:23:06.161Z,99.47
2019-02-02T21:25:34.808Z,98.52
2019-02-02T21:28:03.446Z,99.09
2019-02-02T21:31:11.912Z,99.74
2019-02-02T21:33:40.365Z,99.99
2019-02-02T21:36:08.901Z,99.95
2019-02-02T21:38:37.490Z,99.81
2019-02-02T21:41:46.157Z,99.54
2019-02-02T21:44:14.693Z,99.83
2019-02-02T21:46:43.324Z,100.00
2019-02-02T21:49:11.883Z,99.95
2019-02-02T21:51:40.413Z,99.93
2019-02-02T21:54:09.015Z,100.00
2019-02-02T21:56:37.529Z,100.00
2019-02-02T22:01:41.263Z,99.96
2019-02-02T22:04:09.938Z,99.75
2019-02-02T22:06:38.527Z,99.58
2019-02-02T22:09:47.302Z,99.24
2019-02-02T22:12:15.980Z,98.68
2019-02-02T22:14:44.546Z,99.20
2019-02-02T22:17:13.162Z,98.71
2019-02-02T22:19:41.742Z,98.78
2019-02-02T22:22:10.414Z,98.22
2019-02-02T22:24:39.047Z,98.23
2019-02-02T22:27:07.653Z,98.39
2019-02-02T22:29:36.260Z,97.58
2019-02-02T22:32:04.797Z,97.98
2019-02-02T22:34:35.164Z,98.17
2019-02-02T22:37:04.060Z,98.40
2019-02-02T22:39:32.673Z,98.69
2019-02-02T22:44:57.702Z,98.68
2019-02-02T22:47:41.133Z,98.34
2019-02-02T22:49:57.192Z,98.12
2019-02-02T22:58:40.477Z,97.50
2019-02-02T23:07:38.046Z,96.60
2019-02-02T23:10:45.242Z,96.51
2019-02-02T23:13:52.515Z,96.91
2019-02-02T23:16:40.348Z,96.69
2019-02-02T23:19:08.790Z,96.28
2019-02-02T23:21:37.754Z,96.43
2019-02-02T23:24:06.263Z,96.37
2019-02-02T23:26:34.865Z,96.24
2019-02-02T23:29:03.495Z,95.70
2019-02-02T23:31:31.984Z,95.91
2019-02-02T23:34:00.541Z,95.75
2019-02-02T23:36:29.075Z,95.94
2019-02-02T23:38:57.712Z,96.20
2019-02-02T23:41:26.262Z,95.71
2019-02-02T23:43:55.079Z,95.46
2019-02-02T23:46:23.648Z,95.47
2019-02-02T23:48:52.497Z,95.69
2019-02-02T23:51:21.025Z,95.99
2019-02-02T23:53:49.604Z,95.97
2019-02-02T23:56:18.134Z,95.86
2019-02-02T23:58:46.844Z,96.08
